sensor_id;sensor_type;location;lat;lon;timestamp;temperature;humidity
47310;DHT22;33046;52.270;6.832;2023-09-12T00:00:53;24.60;98.80
47310;DHT22;33046;52.270;6.832;2023-09-12T00:03:00;24.60;98.80
47310;DHT22;33046;52.270;6.832;2023-09-12T00:05:07;24.60;98.80
47310;DHT22;33046;52.270;6.832;2023-09-12T00:07:15;24.50;98.60
47310;DHT22;33046;52.270;6.832;2023-09-12T00:09:22;24.50;98.70
47310;DHT22;33046;52.270;6.832;2023-09-12T00:11:29;24.50;98.70
47310;DHT22;33046;52.270;6.832;2023-09-12T00:13:36;24.50;98.70
47310;DHT22;33046;52.270;6.832;2023-09-12T00:15:43;24.50;98.90
47310;DHT22;33046;52.270;6.832;2023-09-12T00:17:50;24.50;99.00
47310;DHT22;33046;52.270;6.832;2023-09-12T00:19:57;24.40;98.90
47310;DHT22;33046;52.270;6.832;2023-09-12T00:22:04;24.40;98.90
47310;DHT22;33046;52.270;6.832;2023-09-12T00:24:12;24.40;99.00
47310;DHT22;33046;52.270;6.832;2023-09-12T00:26:19;24.40;99.20
47310;DHT22;33046;52.270;6.832;2023-09-12T00:28:27;24.40;99.20
47310;DHT22;33046;52.270;6.832;2023-09-12T00:30:34;24.40;99.30
47310;DHT22;33046;52.270;6.832;2023-09-12T00:32:42;24.30;99.00
47310;DHT22;33046;52.270;6.832;2023-09-12T00:34:48;24.30;99.00
47310;DHT22;33046;52.270;6.832;2023-09-12T00:36:55;24.30;99.00
47310;DHT22;33046;52.270;6.832;2023-09-12T00:39:02;24.30;98.90
47310;DHT22;33046;52.270;6.832;2023-09-12T00:41:11;24.30;99.00
47310;DHT22;33046;52.270;6.832;2023-09-12T00:43:18;24.30;98.90
47310;DHT22;33046;52.270;6.832;2023-09-12T00:45:24;24.30;98.90
47310;DHT22;33046;52.270;6.832;2023-09-12T00:47:31;24.20;98.90
47310;DHT22;33046;52.270;6.832;2023-09-12T00:49:39;24.20;98.90
47310;DHT22;33046;52.270;6.832;2023-09-12T00:51:49;24.20;99.00
47310;DHT22;33046;52.270;6.832;2023-09-12T00:53:56;24.20;99.30
47310;DHT22;33046;52.270;6.832;2023-09-12T00:56:03;24.20;99.30
47310;DHT22;33046;52.270;6.832;2023-09-12T00:58:12;24.20;99.50
47310;DHT22;33046;52.270;6.832;2023-09-12T01:00:20;24.20;99.70
47310;DHT22;33046;52.270;6.832;2023-09-12T01:02:27;24.20;99.70
47310;DHT22;33046;52.270;6.832;2023-09-12T01:04:34;24.20;99.70
47310;DHT22;33046;52.270;6.832;2023-09-12T01:06:42;24.10;99.60
47310;DHT22;33046;52.270;6.832;2023-09-12T01:08:50;24.10;99.70
47310;DHT22;33046;52.270;6.832;2023-09-12T01:10:57;24.10;99.80
47310;DHT22;33046;52.270;6.832;2023-09-12T01:13:05;24.10;99.80
47310;DHT22;33046;52.270;6.832;2023-09-12T01:15:13;24.10;99.90
47310;DHT22;33046;52.270;6.832;2023-09-12T01:17:21;24.10;99.90
47310;DHT22;33046;52.270;6.832;2023-09-12T01:19:28;24.10;99.90
47310;DHT22;33046;52.270;6.832;2023-09-12T01:27:00;24.00;99.90
47310;DHT22;33046;52.270;6.832;2023-09-12T01:29:12;24.10;99.90
47310;DHT22;33046;52.270;6.832;2023-09-12T01:31:19;24.00;99.90
47310;DHT22;33046;52.270;6.832;2023-09-12T01:33:27;24.00;99.90
47310;DHT22;33046;52.270;6.832;2023-09-12T01:35:33;24.00;99.90
47310;DHT22;33046;52.270;6.832;2023-09-12T01:37:40;24.00;99.90
47310;DHT22;33046;52.270;6.832;2023-09-12T01:39:47;24.00;99.90
47310;DHT22;33046;52.270;6.832;2023-09-12T01:41:54;24.00;99.90
47310;DHT22;33046;52.270;6.832;2023-09-12T01:44:02;24.00;99.90
47310;DHT22;33046;52.270;6.832;2023-09-12T01:46:11;24.00;99.90
47310;DHT22;33046;52.270;6.832;2023-09-12T01:48:20;24.00;99.90
47310;DHT22;33046;52.270;6.832;2023-09-12T01:50:28;24.00;99.90
47310;DHT22;33046;52.270;6.832;2023-09-12T01:52:36;24.00;99.90
47310;DHT22;33046;52.270;6.832;2023-09-12T01:54:44;23.90;99.90
47310;DHT22;33046;52.270;6.832;2023-09-12T01:56:51;23.90;99.90
47310;DHT22;33046;52.270;6.832;2023-09-12T01:58:58;23.90;99.90
47310;DHT22;33046;52.270;6.832;2023-09-12T02:01:05;23.90;99.90
47310;DHT22;33046;52.270;6.832;2023-09-12T02:03:14;23.90;99.90
47310;DHT22;33046;52.270;6.832;2023-09-12T02:05:21;23.90;99.90
47310;DHT22;33046;52.270;6.832;2023-09-12T02:07:32;23.90;99.90
47310;DHT22;33046;52.270;6.832;2023-09-12T02:09:39;23.90;99.90
47310;DHT22;33046;52.270;6.832;2023-09-12T02:11:48;23.90;99.90
47310;DHT22;33046;52.270;6.832;2023-09-12T02:13:55;23.80;99.90
47310;DHT22;33046;52.270;6.832;2023-09-12T02:16:01;23.80;99.90
47310;DHT22;33046;52.270;6.832;2023-09-12T02:18:09;23.80;99.90
47310;DHT22;33046;52.270;6.832;2023-09-12T02:20:17;23.80;99.90
47310;DHT22;33046;52.270;6.832;2023-09-12T02:22:24;23.80;99.90
47310;DHT22;33046;52.270;6.832;2023-09-12T02:24:34;23.70;99.90
47310;DHT22;33046;52.270;6.832;2023-09-12T02:26:41;23.70;99.90
47310;DHT22;33046;52.270;6.832;2023-09-12T02:28:48;23.70;99.90
47310;DHT22;33046;52.270;6.832;2023-09-12T02:30:54;23.70;99.90
47310;DHT22;33046;52.270;6.832;2023-09-12T02:33:01;23.70;99.90
47310;DHT22;33046;52.270;6.832;2023-09-12T02:35:08;23.70;99.90
47310;DHT22;33046;52.270;6.832;2023-09-12T02:37:17;23.60;99.90
47310;DHT22;33046;52.270;6.832;2023-09-12T02:39:23;23.60;99.90
47310;DHT22;33046;52.270;6.832;2023-09-12T02:41:30;23.60;99.90
47310;DHT22;33046;52.270;6.832;2023-09-12T02:43:38;23.60;99.90
47310;DHT22;33046;52.270;6.832;2023-09-12T02:45:45;23.60;99.90
47310;DHT22;33046;52.270;6.832;2023-09-12T02:47:52;23.60;99.90
47310;DHT22;33046;52.270;6.832;2023-09-12T02:49:59;23.60;99.90
47310;DHT22;33046;52.270;6.832;2023-09-12T02:52:06;23.50;99.90
47310;DHT22;33046;52.270;6.832;2023-09-12T02:54:14;23.50;99.90
47310;DHT22;33046;52.270;6.832;2023-09-12T02:56:21;23.50;99.90
47310;DHT22;33046;52.270;6.832;2023-09-12T02:58:28;23.50;99.90
47310;DHT22;33046;52.270;6.832;2023-09-12T03:00:37;23.40;99.90
47310;DHT22;33046;52.270;6.832;2023-09-12T03:02:44;23.40;99.80
47310;DHT22;33046;52.270;6.832;2023-09-12T03:04:51;23.40;99.80
47310;DHT22;33046;52.270;6.832;2023-09-12T03:06:58;23.40;99.90
47310;DHT22;33046;52.270;6.832;2023-09-12T03:09:05;23.40;99.90
47310;DHT22;33046;52.270;6.832;2023-09-12T03:11:14;23.30;99.90
47310;DHT22;33046;52.270;6.832;2023-09-12T03:13:21;23.30;99.90
47310;DHT22;33046;52.270;6.832;2023-09-12T03:15:28;23.30;99.90
47310;DHT22;33046;52.270;6.832;2023-09-12T03:17:34;23.30;99.90
47310;DHT22;33046;52.270;6.832;2023-09-12T03:19:41;23.30;99.90
47310;DHT22;33046;52.270;6.832;2023-09-12T03:21:48;23.30;99.90
47310;DHT22;33046;52.270;6.832;2023-09-12T03:23:55;23.30;99.90
47310;DHT22;33046;52.270;6.832;2023-09-12T03:26:02;23.30;99.90
47310;DHT22;33046;52.270;6.832;2023-09-12T03:28:11;23.20;99.90
47310;DHT22;33046;52.270;6.832;2023-09-12T03:30:20;23.30;99.90
47310;DHT22;33046;52.270;6.832;2023-09-12T03:32:27;23.30;99.90
47310;DHT22;33046;52.270;6.832;2023-09-12T03:34:34;23.20;99.90
47310;DHT22;33046;52.270;6.832;2023-09-12T03:36:40;23.20;99.90
47310;DHT22;33046;52.270;6.832;2023-09-12T03:38:47;23.20;99.90
47310;DHT22;33046;52.270;6.832;2023-09-12T03:40:54;23.20;99.90
47310;DHT22;33046;52.270;6.832;2023-09-12T03:43:01;23.20;99.90
47310;DHT22;33046;52.270;6.832;2023-09-12T03:45:10;23.10;99.90
47310;DHT22;33046;52.270;6.832;2023-09-12T03:47:17;23.10;99.90
47310;DHT22;33046;52.270;6.832;2023-09-12T03:49:24;23.10;99.90
47310;DHT22;33046;52.270;6.832;2023-09-12T03:51:31;23.10;99.90
47310;DHT22;33046;52.270;6.832;2023-09-12T03:53:38;23.10;99.90
47310;DHT22;33046;52.270;6.832;2023-09-12T03:55:45;23.10;99.90
47310;DHT22;33046;52.270;6.832;2023-09-12T03:57:52;23.00;99.90
47310;DHT22;33046;52.270;6.832;2023-09-12T03:59:59;23.00;99.90
47310;DHT22;33046;52.270;6.832;2023-09-12T04:02:08;23.00;99.90
47310;DHT22;33046;52.270;6.832;2023-09-12T04:04:15;23.00;99.90
47310;DHT22;33046;52.270;6.832;2023-09-12T04:06:22;23.00;99.90
47310;DHT22;33046;52.270;6.832;2023-09-12T04:08:29;22.90;99.90
47310;DHT22;33046;52.270;6.832;2023-09-12T04:10:36;23.00;99.90
47310;DHT22;33046;52.270;6.832;2023-09-12T04:12:43;22.90;99.90
47310;DHT22;33046;52.270;6.832;2023-09-12T04:14:50;22.90;99.90
47310;DHT22;33046;52.270;6.832;2023-09-12T04:16:57;22.90;99.90
47310;DHT22;33046;52.270;6.832;2023-09-12T04:19:07;22.90;99.90
47310;DHT22;33046;52.270;6.832;2023-09-12T04:21:14;22.90;99.90
47310;DHT22;33046;52.270;6.832;2023-09-12T04:23:21;22.90;99.90
47310;DHT22;33046;52.270;6.832;2023-09-12T04:25:28;22.90;99.90
47310;DHT22;33046;52.270;6.832;2023-09-12T04:27:34;22.90;99.90
47310;DHT22;33046;52.270;6.832;2023-09-12T04:29:41;22.90;99.90
47310;DHT22;33046;52.270;6.832;2023-09-12T04:31:48;22.90;99.90
47310;DHT22;33046;52.270;6.832;2023-09-12T04:33:55;22.80;99.90
47310;DHT22;33046;52.270;6.832;2023-09-12T04:36:04;22.80;99.90
47310;DHT22;33046;52.270;6.832;2023-09-12T04:38:11;22.80;99.90
47310;DHT22;33046;52.270;6.832;2023-09-12T04:40:18;22.80;99.90
47310;DHT22;33046;52.270;6.832;2023-09-12T04:42:25;22.70;99.90
47310;DHT22;33046;52.270;6.832;2023-09-12T04:44:34;22.70;99.90
47310;DHT22;33046;52.270;6.832;2023-09-12T04:46:42;22.70;99.90
47310;DHT22;33046;52.270;6.832;2023-09-12T04:48:50;22.70;99.90
47310;DHT22;33046;52.270;6.832;2023-09-12T04:50:57;22.70;99.90
47310;DHT22;33046;52.270;6.832;2023-09-12T04:53:05;22.70;99.90
47310;DHT22;33046;52.270;6.832;2023-09-12T04:55:12;22.70;99.80
47310;DHT22;33046;52.270;6.832;2023-09-12T04:57:19;22.60;99.90
47310;DHT22;33046;52.270;6.832;2023-09-12T04:59:25;22.60;99.90
47310;DHT22;33046;52.270;6.832;2023-09-12T05:01:33;22.60;99.90
47310;DHT22;33046;52.270;6.832;2023-09-12T05:03:40;22.60;99.90
47310;DHT22;33046;52.270;6.832;2023-09-12T05:05:47;22.60;99.90
47310;DHT22;33046;52.270;6.832;2023-09-12T05:07:54;22.60;99.90
47310;DHT22;33046;52.270;6.832;2023-09-12T05:10:03;22.60;99.90
47310;DHT22;33046;52.270;6.832;2023-09-12T05:12:10;22.60;99.90
47310;DHT22;33046;52.270;6.832;2023-09-12T05:14:17;22.60;99.90
47310;DHT22;33046;52.270;6.832;2023-09-12T05:16:23;22.50;99.90
47310;DHT22;33046;52.270;6.832;2023-09-12T05:18:30;22.50;99.90
47310;DHT22;33046;52.270;6.832;2023-09-12T05:20:37;22.50;99.90
47310;DHT22;33046;52.270;6.832;2023-09-12T05:22:44;22.50;99.90
47310;DHT22;33046;52.270;6.832;2023-09-12T05:24:51;22.50;99.90
47310;DHT22;33046;52.270;6.832;2023-09-12T05:27:00;22.50;99.90
47310;DHT22;33046;52.270;6.832;2023-09-12T05:29:07;22.50;99.90
47310;DHT22;33046;52.270;6.832;2023-09-12T05:31:14;22.50;99.90
47310;DHT22;33046;52.270;6.832;2023-09-12T05:33:21;22.50;99.90
47310;DHT22;33046;52.270;6.832;2023-09-12T05:35:28;22.60;99.90
47310;DHT22;33046;52.270;6.832;2023-09-12T05:37:35;22.50;99.90
47310;DHT22;33046;52.270;6.832;2023-09-12T05:39:42;22.60;99.90
47310;DHT22;33046;52.270;6.832;2023-09-12T05:41:49;22.60;99.90
47310;DHT22;33046;52.270;6.832;2023-09-12T05:43:57;22.50;99.90
47310;DHT22;33046;52.270;6.832;2023-09-12T05:46:04;22.60;99.90
47310;DHT22;33046;52.270;6.832;2023-09-12T05:48:11;22.50;99.90
47310;DHT22;33046;52.270;6.832;2023-09-12T05:50:18;22.60;99.90
47310;DHT22;33046;52.270;6.832;2023-09-12T05:52:25;22.60;99.90
47310;DHT22;33046;52.270;6.832;2023-09-12T05:54:32;22.60;99.90
47310;DHT22;33046;52.270;6.832;2023-09-12T05:56:39;22.60;99.90
47310;DHT22;33046;52.270;6.832;2023-09-12T05:58:46;22.60;99.90
47310;DHT22;33046;52.270;6.832;2023-09-12T06:00:54;22.60;99.90
47310;DHT22;33046;52.270;6.832;2023-09-12T06:03:01;22.60;99.90
47310;DHT22;33046;52.270;6.832;2023-09-12T06:05:08;22.60;99.90
47310;DHT22;33046;52.270;6.832;2023-09-12T06:07:15;22.60;99.90
47310;DHT22;33046;52.270;6.832;2023-09-12T06:09:22;22.60;99.90
47310;DHT22;33046;52.270;6.832;2023-09-12T06:11:29;22.60;99.90
47310;DHT22;33046;52.270;6.832;2023-09-12T06:13:36;22.60;99.90
47310;DHT22;33046;52.270;6.832;2023-09-12T06:15:42;22.60;99.90
47310;DHT22;33046;52.270;6.832;2023-09-12T06:17:51;22.60;99.90
47310;DHT22;33046;52.270;6.832;2023-09-12T06:19:58;22.60;99.90
47310;DHT22;33046;52.270;6.832;2023-09-12T06:22:04;22.70;99.90
47310;DHT22;33046;52.270;6.832;2023-09-12T06:24:13;22.60;99.90
47310;DHT22;33046;52.270;6.832;2023-09-12T06:26:20;22.70;99.90
47310;DHT22;33046;52.270;6.832;2023-09-12T06:28:27;22.70;99.90
47310;DHT22;33046;52.270;6.832;2023-09-12T06:30:34;22.70;99.90
47310;DHT22;33046;52.270;6.832;2023-09-12T06:32:41;22.70;99.90
47310;DHT22;33046;52.270;6.832;2023-09-12T06:34:49;22.70;99.90
47310;DHT22;33046;52.270;6.832;2023-09-12T06:36:56;22.70;99.90
47310;DHT22;33046;52.270;6.832;2023-09-12T06:39:03;22.70;99.90
47310;DHT22;33046;52.270;6.832;2023-09-12T06:41:10;22.70;99.90
47310;DHT22;33046;52.270;6.832;2023-09-12T06:43:17;22.70;99.90
47310;DHT22;33046;52.270;6.832;2023-09-12T06:45:24;22.70;99.90
47310;DHT22;33046;52.270;6.832;2023-09-12T06:47:31;22.70;99.90
47310;DHT22;33046;52.270;6.832;2023-09-12T06:49:38;22.70;99.90
47310;DHT22;33046;52.270;6.832;2023-09-12T06:51:46;22.70;99.90
47310;DHT22;33046;52.270;6.832;2023-09-12T06:53:54;22.70;99.90
47310;DHT22;33046;52.270;6.832;2023-09-12T06:56:01;22.70;99.90
47310;DHT22;33046;52.270;6.832;2023-09-12T06:58:08;22.70;99.90
47310;DHT22;33046;52.270;6.832;2023-09-12T07:00:15;22.70;99.90
47310;DHT22;33046;52.270;6.832;2023-09-12T07:02:22;22.70;99.90
47310;DHT22;33046;52.270;6.832;2023-09-12T07:04:29;22.70;99.90
47310;DHT22;33046;52.270;6.832;2023-09-12T07:06:36;22.80;99.90
47310;DHT22;33046;52.270;6.832;2023-09-12T07:08:44;22.80;99.90
47310;DHT22;33046;52.270;6.832;2023-09-12T07:10:51;22.80;99.90
47310;DHT22;33046;52.270;6.832;2023-09-12T07:12:58;22.80;99.90
47310;DHT22;33046;52.270;6.832;2023-09-12T07:15:06;22.80;99.90
47310;DHT22;33046;52.270;6.832;2023-09-12T07:17:13;22.80;99.90
47310;DHT22;33046;52.270;6.832;2023-09-12T07:19:20;22.80;99.90
47310;DHT22;33046;52.270;6.832;2023-09-12T07:21:27;22.80;99.90
47310;DHT22;33046;52.270;6.832;2023-09-12T07:23:34;22.80;99.90
47310;DHT22;33046;52.270;6.832;2023-09-12T07:25:42;22.90;99.90
47310;DHT22;33046;52.270;6.832;2023-09-12T07:27:49;22.90;99.90
47310;DHT22;33046;52.270;6.832;2023-09-12T07:29:56;22.90;99.90
47310;DHT22;33046;52.270;6.832;2023-09-12T07:32:03;22.80;99.90
47310;DHT22;33046;52.270;6.832;2023-09-12T07:34:10;22.90;99.90
47310;DHT22;33046;52.270;6.832;2023-09-12T07:36:17;22.90;99.90
47310;DHT22;33046;52.270;6.832;2023-09-12T07:38:24;22.90;99.90
47310;DHT22;33046;52.270;6.832;2023-09-12T07:40:30;22.90;99.90
47310;DHT22;33046;52.270;6.832;2023-09-12T07:42:39;22.90;99.90
47310;DHT22;33046;52.270;6.832;2023-09-12T07:44:45;22.90;99.90
47310;DHT22;33046;52.270;6.832;2023-09-12T07:46:52;22.90;99.90
47310;DHT22;33046;52.270;6.832;2023-09-12T07:48:59;22.90;99.90
47310;DHT22;33046;52.270;6.832;2023-09-12T07:51:12;22.90;99.90
47310;DHT22;33046;52.270;6.832;2023-09-12T07:53:19;22.80;99.90
47310;DHT22;33046;52.270;6.832;2023-09-12T07:55:26;22.80;99.90
47310;DHT22;33046;52.270;6.832;2023-09-12T07:57:33;22.80;99.90
47310;DHT22;33046;52.270;6.832;2023-09-12T07:59:41;22.80;99.90
47310;DHT22;33046;52.270;6.832;2023-09-12T08:01:48;22.80;99.90
47310;DHT22;33046;52.270;6.832;2023-09-12T08:03:55;22.80;99.90
47310;DHT22;33046;52.270;6.832;2023-09-12T08:06:02;22.80;99.90
47310;DHT22;33046;52.270;6.832;2023-09-12T08:08:09;22.80;99.90
47310;DHT22;33046;52.270;6.832;2023-09-12T08:10:16;22.80;99.90
47310;DHT22;33046;52.270;6.832;2023-09-12T08:12:24;22.80;99.90
47310;DHT22;33046;52.270;6.832;2023-09-12T08:14:32;22.80;99.90
47310;DHT22;33046;52.270;6.832;2023-09-12T08:16:40;22.80;99.90
47310;DHT22;33046;52.270;6.832;2023-09-12T08:18:47;22.80;99.90
47310;DHT22;33046;52.270;6.832;2023-09-12T08:20:54;22.80;99.90
47310;DHT22;33046;52.270;6.832;2023-09-12T08:23:00;22.80;99.90
47310;DHT22;33046;52.270;6.832;2023-09-12T08:25:08;22.80;99.90
47310;DHT22;33046;52.270;6.832;2023-09-12T08:27:15;22.80;99.90
47310;DHT22;33046;52.270;6.832;2023-09-12T08:29:22;22.80;99.90
47310;DHT22;33046;52.270;6.832;2023-09-12T08:31:29;22.80;99.90
47310;DHT22;33046;52.270;6.832;2023-09-12T08:33:37;22.80;99.90
47310;DHT22;33046;52.270;6.832;2023-09-12T08:35:44;22.80;99.90
47310;DHT22;33046;52.270;6.832;2023-09-12T08:37:51;22.90;99.90
47310;DHT22;33046;52.270;6.832;2023-09-12T08:39:58;22.90;99.90
47310;DHT22;33046;52.270;6.832;2023-09-12T08:42:05;22.90;99.90
47310;DHT22;33046;52.270;6.832;2023-09-12T08:44:13;23.00;99.90
47310;DHT22;33046;52.270;6.832;2023-09-12T08:46:21;23.00;99.90
47310;DHT22;33046;52.270;6.832;2023-09-12T08:48:29;23.10;99.90
47310;DHT22;33046;52.270;6.832;2023-09-12T08:50:38;23.10;99.90
47310;DHT22;33046;52.270;6.832;2023-09-12T08:52:46;23.20;99.90
47310;DHT22;33046;52.270;6.832;2023-09-12T08:55:01;23.30;99.90
47310;DHT22;33046;52.270;6.832;2023-09-12T08:57:10;23.40;99.90
47310;DHT22;33046;52.270;6.832;2023-09-12T08:59:18;23.50;99.90
47310;DHT22;33046;52.270;6.832;2023-09-12T09:01:25;23.60;99.90
47310;DHT22;33046;52.270;6.832;2023-09-12T09:03:32;23.60;99.90
47310;DHT22;33046;52.270;6.832;2023-09-12T09:05:42;23.70;99.90
47310;DHT22;33046;52.270;6.832;2023-09-12T09:07:51;23.80;99.90
47310;DHT22;33046;52.270;6.832;2023-09-12T09:09:58;23.90;99.90
47310;DHT22;33046;52.270;6.832;2023-09-12T09:12:07;23.90;99.90
47310;DHT22;33046;52.270;6.832;2023-09-12T09:14:14;24.00;99.90
47310;DHT22;33046;52.270;6.832;2023-09-12T09:16:21;24.10;99.90
47310;DHT22;33046;52.270;6.832;2023-09-12T09:18:29;24.10;99.80
47310;DHT22;33046;52.270;6.832;2023-09-12T09:20:37;24.20;99.80
47310;DHT22;33046;52.270;6.832;2023-09-12T09:22:56;24.30;99.70
47310;DHT22;33046;52.270;6.832;2023-09-12T09:25:10;24.30;99.40
47310;DHT22;33046;52.270;6.832;2023-09-12T09:27:32;24.40;99.70
47310;DHT22;33046;52.270;6.832;2023-09-12T09:29:47;24.40;99.60
47310;DHT22;33046;52.270;6.832;2023-09-12T09:31:54;24.50;99.50
47310;DHT22;33046;52.270;6.832;2023-09-12T09:34:01;24.50;99.40
47310;DHT22;33046;52.270;6.832;2023-09-12T09:36:08;24.60;99.00
47310;DHT22;33046;52.270;6.832;2023-09-12T09:38:19;24.60;99.00
47310;DHT22;33046;52.270;6.832;2023-09-12T09:40:26;24.60;99.20
47310;DHT22;33046;52.270;6.832;2023-09-12T09:42:32;24.60;99.00
47310;DHT22;33046;52.270;6.832;2023-09-12T09:44:39;24.70;98.70
47310;DHT22;33046;52.270;6.832;2023-09-12T09:46:46;24.70;98.80
47310;DHT22;33046;52.270;6.832;2023-09-12T09:48:57;24.70;99.00
47310;DHT22;33046;52.270;6.832;2023-09-12T09:51:03;24.70;99.10
47310;DHT22;33046;52.270;6.832;2023-09-12T09:53:10;24.70;99.10
47310;DHT22;33046;52.270;6.832;2023-09-12T09:55:20;24.70;99.10
47310;DHT22;33046;52.270;6.832;2023-09-12T09:57:27;24.80;99.20
47310;DHT22;33046;52.270;6.832;2023-09-12T09:59:33;24.70;98.90
47310;DHT22;33046;52.270;6.832;2023-09-12T10:01:40;24.80;99.10
47310;DHT22;33046;52.270;6.832;2023-09-12T10:03:49;24.70;99.10
47310;DHT22;33046;52.270;6.832;2023-09-12T10:05:57;24.80;99.10
47310;DHT22;33046;52.270;6.832;2023-09-12T10:08:07;24.80;99.20
47310;DHT22;33046;52.270;6.832;2023-09-12T10:10:14;24.80;99.20
47310;DHT22;33046;52.270;6.832;2023-09-12T10:12:24;24.70;99.10
47310;DHT22;33046;52.270;6.832;2023-09-12T10:14:31;24.70;98.50
47310;DHT22;33046;52.270;6.832;2023-09-12T10:16:44;24.80;98.20
47310;DHT22;33046;52.270;6.832;2023-09-12T10:18:58;24.70;98.20
47310;DHT22;33046;52.270;6.832;2023-09-12T10:21:10;24.70;98.50
47310;DHT22;33046;52.270;6.832;2023-09-12T10:23:19;24.70;98.90
47310;DHT22;33046;52.270;6.832;2023-09-12T10:25:28;24.60;98.90
47310;DHT22;33046;52.270;6.832;2023-09-12T10:27:36;24.60;98.60
47310;DHT22;33046;52.270;6.832;2023-09-12T10:29:44;24.60;98.60
47310;DHT22;33046;52.270;6.832;2023-09-12T10:31:51;24.70;98.80
47310;DHT22;33046;52.270;6.832;2023-09-12T10:33:58;24.80;98.80
47310;DHT22;33046;52.270;6.832;2023-09-12T10:36:08;24.80;98.60
47310;DHT22;33046;52.270;6.832;2023-09-12T10:38:16;24.80;98.00
47310;DHT22;33046;52.270;6.832;2023-09-12T10:40:26;24.90;98.20
47310;DHT22;33046;52.270;6.832;2023-09-12T10:42:36;25.00;98.40
47310;DHT22;33046;52.270;6.832;2023-09-12T10:44:44;25.00;98.40
47310;DHT22;33046;52.270;6.832;2023-09-12T10:46:53;25.10;98.40
47310;DHT22;33046;52.270;6.832;2023-09-12T10:49:00;25.20;98.40
47310;DHT22;33046;52.270;6.832;2023-09-12T10:51:08;25.20;97.90
47310;DHT22;33046;52.270;6.832;2023-09-12T10:53:16;25.20;97.70
47310;DHT22;33046;52.270;6.832;2023-09-12T10:55:23;25.20;97.40
47310;DHT22;33046;52.270;6.832;2023-09-12T10:57:31;25.20;97.60
47310;DHT22;33046;52.270;6.832;2023-09-12T11:00:09;25.20;97.80
47310;DHT22;33046;52.270;6.832;2023-09-12T11:02:30;25.20;98.00
47310;DHT22;33046;52.270;6.832;2023-09-12T11:04:37;25.30;97.60
47310;DHT22;33046;52.270;6.832;2023-09-12T11:06:45;25.30;96.80
47310;DHT22;33046;52.270;6.832;2023-09-12T11:09:16;25.30;97.00
47310;DHT22;33046;52.270;6.832;2023-09-12T11:11:23;25.40;97.00
47310;DHT22;33046;52.270;6.832;2023-09-12T11:13:37;25.40;97.30
47310;DHT22;33046;52.270;6.832;2023-09-12T11:16:13;25.40;96.80
47310;DHT22;33046;52.270;6.832;2023-09-12T11:18:21;25.50;96.90
47310;DHT22;33046;52.270;6.832;2023-09-12T11:20:49;25.40;96.30
47310;DHT22;33046;52.270;6.832;2023-09-12T11:23:09;25.50;96.30
47310;DHT22;33046;52.270;6.832;2023-09-12T11:25:20;25.50;96.30
47310;DHT22;33046;52.270;6.832;2023-09-12T11:27:31;25.60;96.30
47310;DHT22;33046;52.270;6.832;2023-09-12T11:29:39;25.60;95.90
47310;DHT22;33046;52.270;6.832;2023-09-12T11:31:54;25.60;96.10
47310;DHT22;33046;52.270;6.832;2023-09-12T11:34:01;25.60;95.30
47310;DHT22;33046;52.270;6.832;2023-09-12T11:36:13;25.50;95.40
47310;DHT22;33046;52.270;6.832;2023-09-12T11:38:26;25.60;95.70
47310;DHT22;33046;52.270;6.832;2023-09-12T11:40:43;25.60;95.70
47310;DHT22;33046;52.270;6.832;2023-09-12T11:42:50;25.50;95.80
47310;DHT22;33046;52.270;6.832;2023-09-12T11:44:58;25.60;95.20
47310;DHT22;33046;52.270;6.832;2023-09-12T11:47:08;25.60;94.90
47310;DHT22;33046;52.270;6.832;2023-09-12T11:49:17;25.60;95.40
47310;DHT22;33046;52.270;6.832;2023-09-12T11:51:24;25.50;95.90
47310;DHT22;33046;52.270;6.832;2023-09-12T11:53:31;25.60;96.20
47310;DHT22;33046;52.270;6.832;2023-09-12T11:55:43;25.50;96.10
47310;DHT22;33046;52.270;6.832;2023-09-12T11:57:50;25.50;95.80
47310;DHT22;33046;52.270;6.832;2023-09-12T11:59:57;25.50;95.90
47310;DHT22;33046;52.270;6.832;2023-09-12T12:02:07;25.40;95.80
47310;DHT22;33046;52.270;6.832;2023-09-12T12:04:15;25.50;95.80
47310;DHT22;33046;52.270;6.832;2023-09-12T12:06:22;25.40;95.30
47310;DHT22;33046;52.270;6.832;2023-09-12T12:08:29;25.40;95.40
47310;DHT22;33046;52.270;6.832;2023-09-12T12:10:38;25.40;95.40
47310;DHT22;33046;52.270;6.832;2023-09-12T12:12:45;25.50;95.40
47310;DHT22;33046;52.270;6.832;2023-09-12T12:14:52;25.40;95.20
47310;DHT22;33046;52.270;6.832;2023-09-12T12:17:07;25.50;95.50
47310;DHT22;33046;52.270;6.832;2023-09-12T12:19:14;25.50;95.80
47310;DHT22;33046;52.270;6.832;2023-09-12T12:21:21;25.50;95.60
47310;DHT22;33046;52.270;6.832;2023-09-12T12:23:28;25.60;94.90
47310;DHT22;33046;52.270;6.832;2023-09-12T12:25:35;25.60;94.90
47310;DHT22;33046;52.270;6.832;2023-09-12T12:27:42;25.60;94.50
47310;DHT22;33046;52.270;6.832;2023-09-12T12:29:50;25.60;94.90
47310;DHT22;33046;52.270;6.832;2023-09-12T12:31:59;25.60;94.60
47310;DHT22;33046;52.270;6.832;2023-09-12T12:34:07;25.60;94.90
47310;DHT22;33046;52.270;6.832;2023-09-12T12:36:14;25.70;95.30
47310;DHT22;33046;52.270;6.832;2023-09-12T12:38:21;25.70;94.80
47310;DHT22;33046;52.270;6.832;2023-09-12T12:40:28;25.70;94.10
47310;DHT22;33046;52.270;6.832;2023-09-12T12:42:39;25.70;94.90
47310;DHT22;33046;52.270;6.832;2023-09-12T12:44:55;25.70;94.70
47310;DHT22;33046;52.270;6.832;2023-09-12T12:47:04;25.70;94.50
47310;DHT22;33046;52.270;6.832;2023-09-12T12:49:16;25.70;94.80
47310;DHT22;33046;52.270;6.832;2023-09-12T12:51:24;25.70;94.60
47310;DHT22;33046;52.270;6.832;2023-09-12T12:53:37;25.70;94.50
47310;DHT22;33046;52.270;6.832;2023-09-12T12:55:52;25.70;94.80
47310;DHT22;33046;52.270;6.832;2023-09-12T12:57:58;25.70;94.70
47310;DHT22;33046;52.270;6.832;2023-09-12T13:00:07;25.80;94.70
47310;DHT22;33046;52.270;6.832;2023-09-12T13:02:14;25.80;94.40
47310;DHT22;33046;52.270;6.832;2023-09-12T13:04:24;25.90;94.20
47310;DHT22;33046;52.270;6.832;2023-09-12T13:06:31;25.90;94.20
47310;DHT22;33046;52.270;6.832;2023-09-12T13:08:38;25.80;94.10
47310;DHT22;33046;52.270;6.832;2023-09-12T13:10:44;25.90;94.30
47310;DHT22;33046;52.270;6.832;2023-09-12T13:12:51;25.90;94.10
47310;DHT22;33046;52.270;6.832;2023-09-12T13:14:58;25.90;94.30
47310;DHT22;33046;52.270;6.832;2023-09-12T13:17:05;25.90;94.30
47310;DHT22;33046;52.270;6.832;2023-09-12T13:19:12;25.90;94.40
47310;DHT22;33046;52.270;6.832;2023-09-12T13:21:21;25.80;94.10
47310;DHT22;33046;52.270;6.832;2023-09-12T13:23:28;25.80;94.40
47310;DHT22;33046;52.270;6.832;2023-09-12T13:25:35;25.80;94.70
47310;DHT22;33046;52.270;6.832;2023-09-12T13:27:42;25.80;95.10
47310;DHT22;33046;52.270;6.832;2023-09-12T13:29:49;25.80;94.80
47310;DHT22;33046;52.270;6.832;2023-09-12T13:31:56;25.80;94.70
47310;DHT22;33046;52.270;6.832;2023-09-12T13:34:03;25.70;94.30